Terminal Aerodrome Forecast
Issued by NWS

Home | Current Version | Previous Version | Graphics & Text | Print | Product List | Glossary On
Versions: 1 2 3 4 5 6 7 8 9 10 11 12 13 14 15 16 17 18 19 20 21
000
FTUS43 KLOT 101505 AAA
TAFGYY
TAF AMD
KGYY 101505Z 1015/1112 21012KT P6SM BKN100 BKN250
     FM102100 30010KT P6SM BKN050
     FM111100 21007KT P6SM BKN040=

USA.gov is the U.S. government's official web portal to all federal, state and local government web resources and services.